Time;durP1;ratioP1;P1;durP2;ratioP2;P2;SDS_P1;SDS_P2;PMS_P1;PMS_P2;Temp;Humidity;BMP_temperature;BMP_pressure;BME280_temperature;BME280_humidity;BME280_pressure;Samples;Min_cycle;Max_cycle;Signal;HPM_P1;HPM_P2
2022/02/24 00:00:36;;;;;;;32.90;11.25;;;;;;;1.21;81.13;100987.14;1702316;84;25250;-69
2022/02/24 00:03:05;;;;;;;60.83;30.43;;;;;;;1.17;81.11;100980.66;1700887;84;26011;-70
2022/02/24 00:05:31;;;;;;;63.45;34.08;;;;;;;1.11;81.01;100987.19;1700808;84;25621;-70
2022/02/24 00:07:59;;;;;;;39.50;17.48;;;;;;;1.06;81.01;100982.27;1700904;84;25415;-69
2022/02/24 00:10:25;;;;;;;37.58;17.20;;;;;;;1.00;80.96;100980.50;1700823;84;25652;-69
2022/02/24 00:12:52;;;;;;;33.13;13.40;;;;;;;0.96;81.03;100986.00;1700893;84;25402;-69
2022/02/24 00:15:18;;;;;;;34.63;11.48;;;;;;;0.90;81.20;100983.21;1700923;84;27314;-70
2022/02/24 00:17:44;;;;;;;48.30;16.35;;;;;;;0.88;81.23;100985.80;1700845;84;25996;-69
2022/02/24 00:20:12;;;;;;;47.33;15.88;;;;;;;0.84;81.05;100985.97;1700869;84;25443;-69
2022/02/24 00:22:40;;;;;;;38.67;13.10;;;;;;;0.80;81.18;100988.77;1700835;84;25608;-69
2022/02/24 00:25:08;;;;;;;45.80;14.03;;;;;;;0.74;81.05;100987.31;1700910;84;25416;-70
2022/02/24 00:27:35;;;;;;;43.43;13.13;;;;;;;0.70;81.30;100994.14;1701118;84;27344;-69
2022/02/24 00:30:05;;;;;;;37.98;10.68;;;;;;;0.66;81.58;100988.95;1698872;84;27166;-69
2022/02/24 00:32:31;;;;;;;;;;;;;;;0.61;81.44;100988.81;1703076;84;25463;-68
2022/02/24 00:34:58;;;;;;;35.43;11.03;;;;;;;0.57;81.53;100988.19;1700501;84;25826;-68
2022/02/24 00:37:25;;;;;;;30.00;10.10;;;;;;;0.50;81.65;100985.08;1700370;84;25731;-68
2022/02/24 00:39:51;;;;;;;32.10;10.78;;;;;;;0.45;81.66;100991.59;1700504;84;27402;-69
2022/02/24 00:42:18;;;;;;;36.98;10.53;;;;;;;0.43;81.96;100988.88;1700431;84;25418;-68
2022/02/24 00:44:44;;;;;;;30.10;9.13;;;;;;;0.40;81.76;100985.33;1700475;84;25386;-69
2022/02/24 00:47:11;;;;;;;24.18;8.35;;;;;;;0.34;81.54;100991.01;1700997;84;25790;-69
2022/02/24 00:49:38;;;;;;;29.02;8.63;;;;;;;0.28;81.38;100985.27;1701567;84;25617;-69
2022/02/24 00:52:05;;;;;;;25.82;8.05;;;;;;;0.24;81.38;100987.56;1701080;84;27342;-70
2022/02/24 00:54:31;;;;;;;26.68;8.53;;;;;;;0.20;81.73;100982.91;1701237;84;25307;-69
2022/02/24 00:56:58;;;;;;;27.45;9.00;;;;;;;0.14;81.72;100984.09;1699499;84;25589;-70
2022/02/24 00:59:24;;;;;;;33.95;8.18;;;;;;;0.10;81.50;100984.25;1698778;84;25873;-71
2022/02/24 01:01:51;;;;;;;27.85;8.38;;;;;;;0.05;81.94;100986.77;1699349;84;25582;-68
2022/02/24 01:04:17;;;;;;;31.73;9.35;;;;;;;0.02;81.88;100985.03;1699092;84;27867;-68
2022/02/24 01:06:44;;;;;;;24.00;7.92;;;;;;;-0.03;81.75;100988.38;1699218;84;25415;-69
2022/02/24 01:09:10;;;;;;;28.17;8.90;;;;;;;-0.07;82.00;100984.02;1681091;84;25635;-69
2022/02/24 01:11:37;;;;;;;22.85;8.28;;;;;;;-0.08;82.11;100980.25;1699299;84;26278;-70
2022/02/24 01:14:03;;;;;;;23.05;7.62;;;;;;;-0.12;81.94;100979.88;1699377;84;25647;-70
2022/02/24 01:16:30;;;;;;;30.77;7.87;;;;;;;-0.16;82.00;100980.54;1699336;84;27321;-71
2022/02/24 01:18:57;;;;;;;28.45;8.75;;;;;;;-0.17;82.29;100980.23;1699252;84;25433;-71
2022/02/24 01:21:23;;;;;;;29.10;7.90;;;;;;;-0.21;82.40;100975.87;1699562;84;25474;-70
2022/02/24 01:23:50;;;;;;;21.27;7.17;;;;;;;-0.24;82.31;100981.63;1699404;84;26473;-70
2022/02/24 01:26:16;;;;;;;23.80;8.00;;;;;;;-0.30;82.17;100978.53;1699381;84;25465;-71
2022/02/24 01:28:43;;;;;;;25.75;7.87;;;;;;;-0.36;82.17;100983.39;1699355;84;27329;-71
2022/02/24 01:31:09;;;;;;;23.05;6.35;;;;;;;-0.38;82.50;100989.73;1699254;84;25584;-70
2022/02/24 01:33:36;;;;;;;21.57;6.97;;;;;;;-0.41;82.73;100984.03;1699348;84;25395;-71
2022/02/24 01:36:02;;;;;;;31.30;7.83;;;;;;;-0.43;82.99;100985.58;1699302;84;25628;-71
2022/02/24 01:38:29;;;;;;;22.42;6.28;;;;;;;-0.43;83.30;100988.77;1699342;84;25572;-71
2022/02/24 01:40:56;;;;;;;23.05;6.15;;;;;;;-0.42;83.66;100995.19;1699283;84;28001;-71
2022/02/24 01:43:22;;;;;;;21.48;6.35;;;;;;;-0.43;83.40;100991.42;1699240;84;25625;-71
2022/02/24 01:45:49;;;;;;;24.70;6.30;;;;;;;-0.43;83.49;100989.56;1699335;84;25622;-71
2022/02/24 01:48:16;;;;;;;23.90;6.45;;;;;;;-0.44;83.63;100991.95;1699293;84;26185;-71
2022/02/24 01:50:43;;;;;;;23.70;6.42;;;;;;;-0.46;83.51;100991.36;1699295;84;25636;-71
2022/02/24 01:53:11;;;;;;;26.20;7.75;;;;;;;-0.48;83.44;100997.38;1699303;84;27331;-71
2022/02/24 01:55:37;;;;;;;21.70;7.05;;;;;;;-0.50;83.42;100992.00;1699131;84;25407;-71
2022/02/24 01:58:04;;;;;;;28.52;7.92;;;;;;;-0.53;83.59;101000.41;1699315;84;25610;-71
2022/02/24 02:00:31;;;;;;;20.10;7.67;;;;;;;-0.54;83.67;101003.59;1699255;84;25766;-71
2022/02/24 02:02:57;;;;;;;33.15;9.15;;;;;;;-0.57;83.92;100998.17;1699357;84;25400;-71
2022/02/24 02:05:24;;;;;;;21.20;9.18;;;;;;;-0.60;83.81;101000.45;1699308;84;27910;-71
2022/02/24 02:07:50;;;;;;;25.68;9.05;;;;;;;-0.62;83.82;101000.67;1699238;84;25636;-71
2022/02/24 02:10:17;;;;;;;25.43;9.18;;;;;;;-0.63;84.00;101005.70;1699275;84;25441;-71
2022/02/24 02:12:50;;;;;;;30.35;9.93;;;;;;;-0.64;84.21;101004.07;1699282;84;25577;-71
2022/02/24 02:15:18;;;;;;;28.50;9.88;;;;;;;-0.64;84.57;101011.23;1699437;84;25584;-71
2022/02/24 02:17:45;;;;;;;23.35;8.55;;;;;;;-0.66;84.50;101007.47;1699276;84;27930;-71
2022/02/24 02:20:12;;;;;;;23.92;8.75;;;;;;;-0.67;84.61;101008.48;1699202;84;25715;-71
2022/02/24 02:22:40;;;;;;;27.22;9.08;;;;;;;-0.66;84.79;101013.30;1699313;84;25612;-71
2022/02/24 02:25:08;;;;;;;33.60;10.23;;;;;;;-0.68;84.40;101018.00;1699240;84;25661;-70
2022/02/24 02:27:37;;;;;;;34.15;11.15;;;;;;;-0.71;84.44;101010.48;1699289;84;25628;-70
2022/02/24 02:30:07;;;;;;;22.82;9.70;;;;;;;-0.72;84.55;101012.30;1699433;84;27385;-71
2022/02/24 02:32:33;;;;;;;28.20;10.30;;;;;;;-0.73;84.84;101004.05;1680707;84;25299;-71
2022/02/24 02:34:59;;;;;;;25.60;8.73;;;;;;;-0.73;84.76;101007.20;1699314;84;25441;-71
2022/02/24 02:37:26;;;;;;;33.45;11.30;;;;;;;-0.76;84.70;100999.97;1699255;84;25674;-71
2022/02/24 02:39:52;;;;;;;26.95;10.10;;;;;;;-0.79;84.74;101000.39;1699299;84;25486;-70
2022/02/24 02:42:18;;;;;;;28.55;9.78;;;;;;;-0.80;84.76;101001.94;1699307;84;27376;-70
2022/02/24 02:44:45;;;;;;;30.72;10.53;;;;;;;-0.82;84.49;101000.02;1699224;84;25410;-71
2022/02/24 02:47:12;;;;;;;30.50;12.00;;;;;;;-0.85;84.50;100999.11;1699286;84;25417;-71
2022/02/24 02:49:38;;;;;;;32.58;11.33;;;;;;;-0.88;84.80;101000.38;1699195;84;25572;-71
2022/02/24 02:52:07;;;;;;;25.27;9.88;;;;;;;-0.89;84.94;101001.91;1699300;84;25632;-70
2022/02/24 02:54:36;;;;;;;37.20;12.18;;;;;;;-0.91;84.89;101003.45;1699297;84;27365;-71
2022/02/24 02:57:03;;;;;;;31.60;10.58;;;;;;;-0.92;85.09;101000.48;1700070;84;25482;-71
2022/02/24 02:59:29;;;;;;;38.80;13.85;;;;;;;-0.93;85.14;100996.75;1700723;84;25403;-70
2022/02/24 03:01:56;;;;;;;32.15;12.78;;;;;;;-0.96;85.37;100994.80;1700741;84;25851;-71
2022/02/24 03:04:23;;;;;;;40.98;12.18;;;;;;;-0.97;85.33;100992.35;1700827;84;25576;-73
2022/02/24 03:06:50;;;;;;;35.28;12.93;;;;;;;-0.97;85.19;101003.81;1700756;84;28112;-71
2022/02/24 03:09:17;;;;;;;31.07;11.43;;;;;;;-1.00;85.32;101002.91;1700765;84;25395;-70
2022/02/24 03:11:43;;;;;;;34.30;12.98;;;;;;;-1.04;85.16;101000.88;1700823;84;25842;-72
2022/02/24 03:14:10;;;;;;;33.23;12.45;;;;;;;-1.07;85.42;100993.34;1700730;84;25718;-71
2022/02/24 03:16:37;;;;;;;28.30;11.60;;;;;;;-1.08;85.47;100997.04;1700809;84;25620;-71
2022/02/24 03:19:04;;;;;;;29.35;12.75;;;;;;;-1.08;85.68;100993.06;1700744;84;27448;-71
2022/02/24 03:21:30;;;;;;;39.95;11.85;;;;;;;-1.09;85.54;100996.23;1700691;84;25545;-71
2022/02/24 03:23:57;;;;;;;32.28;13.18;;;;;;;-1.10;85.71;100997.25;1700761;84;25492;-71
2022/02/24 03:26:23;;;;;;;35.03;12.43;;;;;;;-1.11;85.73;100998.27;1700718;84;26192;-71
2022/02/24 03:28:50;;;;;;;33.05;12.90;;;;;;;-1.11;85.81;100996.94;1700800;84;25556;-71
2022/02/24 03:31:16;;;;;;;37.53;14.15;;;;;;;-1.13;85.77;100993.69;1700762;84;27895;-71
2022/02/24 03:33:42;;;;;;;36.08;12.05;;;;;;;-1.16;85.70;100980.34;1700700;84;25747;-71
2022/02/24 03:36:09;;;;;;;31.37;11.25;;;;;;;-1.20;85.47;100979.66;1700946;84;25715;-71
2022/02/24 03:38:35;;;;;;;27.15;12.43;;;;;;;-1.24;85.39;100978.44;1700839;84;26098;-71
2022/02/24 03:41:02;;;;;;;36.13;12.00;;;;;;;-1.26;85.29;100979.16;1700918;84;25427;-71
2022/02/24 03:43:28;;;;;;;33.90;14.15;;;;;;;-1.29;85.50;100985.73;1700887;84;27263;-71
2022/02/24 03:45:55;;;;;;;35.13;12.35;;;;;;;-1.32;85.70;100978.98;1700920;84;25423;-71
2022/02/24 03:48:21;;;;;;;29.20;12.73;;;;;;;-1.34;85.82;100985.03;1701001;84;25420;-70
2022/02/24 03:50:48;;;;;;;35.25;13.65;;;;;;;-1.35;85.72;100980.73;1700962;84;26281;-71
2022/02/24 03:53:14;;;;;;;38.38;12.78;;;;;;;-1.37;85.88;100984.64;1701017;84;25402;-72
2022/02/24 03:55:40;;;;;;;31.27;11.57;;;;;;;-1.38;86.01;100977.70;1700945;84;27221;-70
2022/02/24 03:58:06;;;;;;;31.85;11.40;;;;;;;-1.40;85.91;100981.89;1686349;84;25502;-71
2022/02/24 04:00:33;;;;;;;25.12;11.05;;;;;;;-1.42;85.69;100980.48;1707506;84;25386;-72
2022/02/24 04:02:59;;;;;;;28.95;12.35;;;;;;;-1.46;85.54;100980.59;1707493;83;25640;-70
2022/02/24 04:05:25;;;;;;;32.50;12.85;;;;;;;-1.50;85.44;100980.20;1707550;83;25584;-70
2022/02/24 04:07:54;;;;;;;37.35;12.70;;;;;;;-1.53;85.35;100982.78;1707580;83;27334;-71
2022/02/24 04:10:20;;;;;;;37.83;12.20;;;;;;;-1.57;85.37;100982.89;1707559;83;25537;-71
2022/02/24 04:12:47;;;;;;;33.58;12.40;;;;;;;-1.57;85.67;100984.73;1707586;84;25552;-71
2022/02/24 04:15:13;;;;;;;36.38;13.13;;;;;;;-1.59;85.86;100990.77;1707432;84;26198;-71
2022/02/24 04:17:39;;;;;;;39.63;12.80;;;;;;;-1.61;85.87;100988.85;1707480;84;25547;-71
2022/02/24 04:20:08;;;;;;;36.00;12.88;;;;;;;-1.64;86.04;100988.75;1707429;83;28304;-71
2022/02/24 04:22:35;;;;;;;31.00;13.53;;;;;;;-1.64;86.26;100988.75;1707565;84;25585;-71
2022/02/24 04:25:02;;;;;;;34.40;12.28;;;;;;;-1.64;86.21;100990.59;1707427;84;25605;-71
2022/02/24 04:27:29;;;;;;;33.88;12.98;;;;;;;-1.66;86.69;100996.11;1707392;83;25688;-72
2022/02/24 04:29:56;;;;;;;30.57;12.70;;;;;;;-1.66;86.63;100990.00;1707462;84;25476;-71
2022/02/24 04:32:22;;;;;;;32.08;13.30;;;;;;;-1.66;86.73;100992.65;1707403;83;27329;-71
2022/02/24 04:34:49;;;;;;;29.57;11.60;;;;;;;-1.66;86.81;100997.44;1707381;84;25401;-71
2022/02/24 04:37:15;;;;;;;29.75;12.33;;;;;;;-1.66;86.91;100990.80;1707408;84;25457;-71
2022/02/24 04:39:42;;;;;;;36.53;12.80;;;;;;;-1.63;87.07;100985.60;1707372;84;25593;-71
2022/02/24 04:42:09;;;;;;;39.58;15.63;;;;;;;-1.62;87.24;100978.73;1707435;83;25385;-71
2022/02/24 04:44:35;;;;;;;35.83;13.35;;;;;;;-1.61;87.24;100983.02;1707394;83;27311;-71
2022/02/24 04:47:02;;;;;;;40.33;12.37;;;;;;;-1.60;87.40;100978.03;1707340;83;25561;-71
2022/02/24 04:49:29;;;;;;;40.43;12.68;;;;;;;-1.59;87.44;100980.16;1707444;84;25395;-71
2022/02/24 04:51:55;;;;;;;35.25;12.88;;;;;;;-1.58;87.47;100980.48;1707460;84;25605;-71
2022/02/24 04:54:22;;;;;;;35.28;12.50;;;;;;;-1.58;87.40;100979.95;1707515;84;25570;-71
2022/02/24 04:56:48;;;;;;;40.20;12.60;;;;;;;-1.58;87.28;100975.17;1687981;83;27933;-71
2022/02/24 04:59:15;;;;;;;29.90;11.40;;;;;;;-1.58;87.28;100976.50;1713334;83;25557;-72
2022/02/24 05:01:41;;;;;;;35.35;13.90;;;;;;;-1.60;87.33;100974.05;1713252;83;25141;-72
2022/02/24 05:04:08;;;;;;;30.82;11.68;;;;;;;-1.60;87.12;100977.20;1713305;83;25560;-71
2022/02/24 05:06:34;;;;;;;37.48;12.93;;;;;;;-1.64;86.86;100979.46;1714096;83;25458;-71
2022/02/24 05:09:01;;;;;;;28.05;11.40;;;;;;;-1.65;86.75;100979.17;1713454;83;27444;-71
2022/02/24 05:11:27;;;;;;;37.28;12.80;;;;;;;-1.69;86.57;100979.28;1713164;83;25613;-71
2022/02/24 05:13:57;;;;;;;31.10;11.93;;;;;;;-1.72;86.59;100978.36;1713233;83;25613;-72
2022/02/24 05:16:23;;;;;;;36.95;13.22;;;;;;;-1.73;86.69;100980.73;1713338;83;25662;-72
2022/02/24 05:18:50;;;;;;;27.45;12.35;;;;;;;-1.74;86.79;100980.42;1713245;83;25374;-71
2022/02/24 05:21:20;;;;;;;29.75;11.68;;;;;;;-1.76;86.76;100980.63;1713226;83;27310;-71
2022/02/24 05:23:46;;;;;;;37.65;12.28;;;;;;;-1.78;86.50;100984.53;1713148;83;25649;-71
2022/02/24 05:26:13;;;;;;;33.48;12.60;;;;;;;-1.82;86.52;100981.48;1713245;83;25543;-71
2022/02/24 05:28:39;;;;;;;28.50;12.25;;;;;;;-1.84;86.67;100984.84;1713203;83;25625;-71
2022/02/24 05:31:06;;;;;;;34.18;12.37;;;;;;;-1.85;86.56;100977.12;1713288;83;25549;-71
2022/02/24 05:33:33;;;;;;;31.62;13.32;;;;;;;-1.88;86.81;100976.48;1713254;83;27333;-71
2022/02/24 05:36:02;;;;;;;37.28;12.55;;;;;;;-1.90;86.87;100981.20;1713143;83;25613;-71
2022/02/24 05:38:29;;;;;;;27.67;11.93;;;;;;;-1.90;86.85;100983.05;1713405;83;25506;-71
2022/02/24 05:40:57;;;;;;;32.42;12.40;;;;;;;-1.91;87.02;100988.86;1713182;83;25611;-72
2022/02/24 05:43:25;;;;;;;31.07;12.40;;;;;;;-1.92;86.95;100991.20;1713387;83;25196;-72
2022/02/24 05:45:51;;;;;;;29.95;12.65;;;;;;;-1.92;86.96;100993.05;1696797;83;27337;-71
2022/02/24 05:48:18;;;;;;;34.43;12.05;;;;;;;-1.92;86.95;100989.87;1713194;83;25433;-71
2022/02/24 05:50:45;;;;;;;32.90;13.05;;;;;;;-1.92;86.95;100995.70;1713324;83;25675;-71
2022/02/24 05:53:11;;;;;;;32.67;13.55;;;;;;;-1.93;87.17;100988.23;1713187;83;25632;-71
2022/02/24 05:55:38;;;;;;;36.48;13.30;;;;;;;-1.91;87.41;100988.03;1696689;83;25579;-71
2022/02/24 05:58:05;;;;;;;31.25;12.33;;;;;;;-1.91;87.37;100987.54;1712270;83;27398;-72
2022/02/24 06:00:32;;;;;;;30.75;12.58;;;;;;;-1.91;87.17;100982.73;1711598;83;25444;-72
2022/02/24 06:02:59;;;;;;;34.25;14.05;;;;;;;-1.89;87.29;100983.33;1711803;83;25561;-71
2022/02/24 06:05:26;;;;;;;39.05;14.00;;;;;;;-1.86;87.30;100983.44;1711699;83;25632;-71
2022/02/24 06:07:53;;;;;;;32.40;14.25;;;;;;;-1.86;87.61;100979.45;1711798;83;25638;-71
2022/02/24 06:10:20;;;;;;;39.83;14.38;;;;;;;-1.82;87.60;100988.61;1711733;83;27986;-71
2022/02/24 06:12:46;;;;;;;41.00;14.58;;;;;;;-1.81;87.72;100989.73;1711655;83;25679;-71
2022/02/24 06:15:13;;;;;;;44.35;14.90;;;;;;;-1.76;87.86;100988.59;1711727;83;25551;-71
2022/02/24 06:17:41;;;;;;;43.33;15.43;;;;;;;-1.71;88.12;100993.27;1711745;83;25623;-71
2022/02/24 06:20:09;;;;;;;36.25;14.73;;;;;;;-1.66;88.14;100989.48;1711677;83;25411;-72
2022/02/24 06:22:36;;;;;;;40.83;13.65;;;;;;;-1.60;88.21;100989.97;1711684;83;27318;-72
2022/02/24 06:25:03;;;;;;;39.65;15.53;;;;;;;-1.56;88.40;100988.51;1711610;83;25652;-72
2022/02/24 06:27:29;;;;;;;42.08;16.15;;;;;;;-1.48;88.43;100995.92;1711721;83;25664;-72
2022/02/24 06:29:57;;;;;;;38.10;14.28;;;;;;;-1.44;88.45;100989.98;1711680;83;25639;-71
2022/02/24 06:32:23;;;;;;;41.92;15.75;;;;;;;-1.36;88.64;100984.44;1711764;83;25486;-72
2022/02/24 06:34:50;;;;;;;37.65;16.23;;;;;;;-1.28;88.75;100987.86;1711731;83;27340;-73
2022/02/24 06:37:16;;;;;;;44.00;15.23;;;;;;;-1.22;88.73;100981.19;1711608;83;25682;-72
2022/02/24 06:39:43;;;;;;;36.75;15.23;;;;;;;-1.14;88.79;100986.77;1711937;83;25417;-69
2022/02/24 06:42:09;;;;;;;43.90;15.32;;;;;;;-1.05;88.93;100984.67;1713728;83;25783;-70
2022/02/24 06:44:36;;;;;;;36.75;14.65;;;;;;;-0.91;89.43;100992.02;1713820;83;25383;-71
2022/02/24 06:47:03;;;;;;;35.38;14.78;;;;;;;-0.73;89.75;100982.80;1714119;83;27361;-72
2022/02/24 06:49:29;;;;;;;43.17;16.85;;;;;;;-0.52;90.19;100976.80;1711640;83;25403;-72
2022/02/24 06:51:57;;;;;;;39.60;16.17;;;;;;;-0.31;90.31;100979.03;1711674;83;25639;-71
2022/02/24 06:54:26;;;;;;;36.80;15.65;;;;;;;-0.13;89.72;100971.60;1711708;83;26149;-73
2022/02/24 06:56:52;;;;;;;39.63;16.55;;;;;;;0.08;89.69;100980.97;1711743;83;25428;-71
2022/02/24 06:59:19;;;;;;;38.25;15.08;;;;;;;0.31;89.35;100978.98;1711688;83;27350;-72
2022/02/24 07:01:45;;;;;;;34.80;15.08;;;;;;;0.52;89.17;100983.00;1711870;83;25260;-71
2022/02/24 07:04:12;;;;;;;37.15;14.47;;;;;;;0.71;88.56;100990.42;1711835;83;25599;-71
2022/02/24 07:06:39;;;;;;;43.73;16.10;;;;;;;0.93;88.66;100985.92;1689099;83;26186;-70
2022/02/24 07:09:06;;;;;;;42.40;16.52;;;;;;;1.18;89.07;100982.29;1711870;83;25432;-71
2022/02/24 07:11:32;;;;;;;43.68;17.65;;;;;;;1.42;88.74;100982.59;1711876;83;26872;-71
2022/02/24 07:14:01;;;;;;;45.00;17.02;;;;;;;1.72;88.11;100988.85;1711791;83;25598;-70
2022/02/24 07:16:27;;;;;;;42.45;16.77;;;;;;;1.99;87.77;100989.17;1711852;83;25410;-70
2022/02/24 07:18:54;;;;;;;39.70;16.90;;;;;;;2.21;87.60;100984.03;1711830;83;25720;-71
2022/02/24 07:21:20;;;;;;;38.65;16.02;;;;;;;2.55;88.38;100977.48;1711889;83;25445;-70
2022/02/24 07:23:47;;;;;;;37.38;18.20;;;;;;;2.86;86.38;100974.03;1711925;83;27899;-70
2022/02/24 07:26:13;;;;;;;45.08;17.32;;;;;;;3.03;86.36;100978.06;1711876;83;25623;-70
2022/02/24 07:28:43;;;;;;;46.85;16.35;;;;;;;3.24;85.22;100981.89;1712065;83;25575;-71
2022/02/24 07:31:08;;;;;;;48.15;16.93;;;;;;;3.54;85.91;100970.33;1711723;83;25567;-70
2022/02/24 07:33:35;;;;;;;37.13;17.32;;;;;;;3.88;85.47;100972.12;1689488;83;25476;-70
2022/02/24 07:36:01;;;;;;;39.88;17.05;;;;;;;4.14;83.47;100965.23;1709501;82;27430;-72
2022/02/24 07:38:28;;;;;;;36.17;15.78;;;;;;;4.41;83.20;100969.30;1708608;83;25687;-71
2022/02/24 07:40:54;;;;;;;46.88;17.77;;;;;;;4.55;80.06;100968.38;1708637;83;25719;-72
2022/02/24 07:43:21;;;;;;;38.75;15.93;;;;;;;4.70;81.25;100970.41;1724512;82;25777;-72
2022/02/24 07:45:47;;;;;;;42.45;14.98;;;;;;;4.94;81.32;100974.92;1735676;82;25767;-73
2022/02/24 07:48:14;;;;;;;38.78;14.95;;;;;;;5.22;79.99;100977.03;1735954;82;28096;-73
2022/02/24 07:50:40;;;;;;;42.80;16.27;;;;;;;5.51;78.16;100977.50;1733909;82;25796;-73
2022/02/24 07:53:07;;;;;;;33.45;14.25;;;;;;;5.70;75.76;100974.41;1741357;82;25614;-72
2022/02/24 07:55:34;;;;;;;39.92;14.53;;;;;;;6.17;77.40;100978.98;1741171;82;25734;-72
2022/02/24 07:58:00;;;;;;;37.23;14.78;;;;;;;6.99;78.03;100979.72;1739471;82;25698;-71
2022/02/24 08:04:28;;;;;;;35.90;14.10;;;;;;;8.06;73.66;100977.97;1703186;82;26251;-67
2022/02/24 08:06:55;;;;;;;32.53;14.03;;;;;;;8.62;70.36;100968.84;1704739;84;25854;-67
2022/02/24 08:09:21;;;;;;;28.27;12.63;;;;;;;9.05;69.68;100960.98;1704660;84;25804;-69
2022/02/24 08:14:36;;;;;;;35.78;12.18;;;;;;;9.47;68.48;100956.84;1704752;84;27395;-67
2022/02/24 08:17:04;;;;;;;31.65;12.05;;;;;;;9.43;66.88;100959.31;1726459;82;25700;-67
2022/02/24 08:19:31;;;;;;;32.65;12.82;;;;;;;9.46;66.79;100949.81;1735553;82;25708;-67
2022/02/24 08:21:58;;;;;;;36.28;12.53;;;;;;;9.55;66.85;100946.74;1735577;82;25677;-68
2022/02/24 08:24:24;;;;;;;31.73;12.20;;;;;;;9.57;66.23;100944.59;1735642;82;25697;-69
2022/02/24 08:26:52;;;;;;;35.55;11.93;;;;;;;9.51;65.71;100940.31;1735659;82;27316;-68
2022/02/24 08:29:19;;;;;;;26.75;11.45;;;;;;;9.73;66.24;100937.11;1735568;82;25720;-68
2022/02/24 08:31:46;;;;;;;28.98;11.25;;;;;;;9.87;64.45;100935.31;1735608;82;25667;-68
2022/02/24 08:34:12;;;;;;;26.95;10.70;;;;;;;10.02;65.10;100930.28;1735685;82;25770;-68
2022/02/24 08:36:39;;;;;;;25.80;10.80;;;;;;;10.14;63.25;100936.62;1717736;82;25682;-67
2022/02/24 08:39:08;;;;;;;27.42;10.68;;;;;;;10.13;62.37;100928.27;1677553;85;27329;-68
2022/02/24 08:41:39;;;;;;;26.55;12.00;;;;;;;10.20;62.09;100926.53;1706349;84;27185;-68
2022/02/24 08:44:06;;;;;;;29.72;10.70;;;;;;;10.26;61.42;100922.68;1706324;84;26400;-68
2022/02/24 08:46:32;;;;;;;22.13;8.80;;;;;;;10.56;63.51;100913.92;1706202;84;25683;-67
2022/02/24 08:48:59;;;;;;;24.40;8.45;;;;;;;10.73;60.45;100910.13;1706320;84;26358;-68
2022/02/24 08:51:27;;;;;;;21.87;8.60;;;;;;;10.69;59.37;100915.86;1706186;84;29445;-67
2022/02/24 08:53:53;;;;;;;24.37;9.50;;;;;;;10.74;59.79;100911.72;1706136;84;25797;-68
2022/02/24 08:56:20;;;;;;;22.42;9.28;;;;;;;10.90;59.05;100910.16;1706261;84;25747;-68
2022/02/24 08:58:47;;;;;;;21.85;8.70;;;;;;;10.93;58.23;100909.53;1702864;84;26512;-68
2022/02/24 09:01:14;;;;;;;21.73;8.05;;;;;;;11.09;58.83;100906.84;1698454;84;25683;-68
2022/02/24 09:03:41;;;;;;;21.80;7.65;;;;;;;11.20;58.26;100898.80;1698391;84;27470;-67
2022/02/24 09:06:07;;;;;;;24.00;8.83;;;;;;;11.45;58.58;100891.30;1698261;84;25878;-68
2022/02/24 09:08:35;;;;;;;28.42;9.43;;;;;;;11.62;56.63;100899.39;1698399;84;25716;-67
2022/02/24 09:11:02;;;;;;;26.57;8.58;;;;;;;11.76;57.08;100894.22;1698333;84;25659;-68
2022/02/24 09:13:28;;;;;;;22.10;7.87;;;;;;;11.91;57.04;100890.41;1698371;84;25726;-68
2022/02/24 09:15:55;;;;;;;17.37;7.58;;;;;;;12.02;57.03;100875.27;1698441;84;27401;-68
2022/02/24 09:18:22;;;;;;;21.37;8.23;;;;;;;12.56;54.91;100878.14;1698273;84;25647;-68
2022/02/24 09:20:48;;;;;;;22.60;7.60;;;;;;;12.52;54.25;100882.03;1697851;84;25684;-68
2022/02/24 09:23:15;;;;;;;21.62;8.48;;;;;;;12.61;54.94;100875.31;1697876;84;25671;-68
2022/02/24 09:25:41;;;;;;;22.35;8.08;;;;;;;12.68;51.53;100870.23;1698388;84;25762;-67
2022/02/24 09:28:08;;;;;;;27.75;9.33;;;;;;;12.63;51.80;100858.16;1698451;84;27440;-68
2022/02/24 09:30:35;;;;;;;21.17;8.40;;;;;;;12.58;53.13;100860.99;1698186;84;25734;-68
2022/02/24 09:33:03;;;;;;;21.37;8.00;;;;;;;12.49;51.24;100850.08;1698125;84;25766;-67
2022/02/24 09:35:29;;;;;;;24.65;8.50;;;;;;;12.62;53.42;100858.72;1698084;84;25693;-68
2022/02/24 09:37:56;;;;;;;20.75;7.90;;;;;;;12.55;50.91;100839.36;1698394;84;25632;-68
2022/02/24 09:40:25;;;;;;;19.77;8.15;;;;;;;12.53;52.20;100830.70;1698199;84;27327;-68
2022/02/24 09:42:51;;;;;;;24.27;7.60;;;;;;;12.83;53.68;100837.85;1697924;84;25923;-68
2022/02/24 09:45:19;;;;;;;21.85;7.92;;;;;;;12.96;51.28;100829.39;1698206;84;25703;-68
2022/02/24 09:47:47;;;;;;;17.87;7.08;;;;;;;12.71;49.74;100834.34;1698296;84;25817;-68
2022/02/24 09:50:13;;;;;;;17.98;7.45;;;;;;;12.61;47.64;100822.39;1698185;84;25363;-68
2022/02/24 09:52:39;;;;;;;19.73;7.17;;;;;;;12.65;48.38;100818.75;1678581;84;27405;-67
2022/02/24 09:55:07;;;;;;;19.65;7.17;;;;;;;12.92;50.84;100797.96;1698099;84;25840;-68
2022/02/24 09:57:34;;;;;;;18.35;6.47;;;;;;;13.62;50.86;100808.56;1698197;84;25686;-68
2022/02/24 10:00:01;;;;;;;17.65;6.58;;;;;;;14.34;48.07;100811.00;1698131;84;25676;-68
2022/02/24 10:02:29;;;;;;;18.87;6.62;;;;;;;14.62;45.77;100788.88;1698208;84;25765;-68
2022/02/24 10:05:11;;;;;;;15.30;5.53;;;;;;;14.99;45.58;100780.52;1698466;84;27919;-68
2022/02/24 10:07:40;;;;;;;18.62;7.03;;;;;;;15.26;42.74;100788.80;1698141;84;26326;-69
2022/02/24 10:10:33;;;;;;;16.42;5.87;;;;;;;15.65;45.29;100780.00;1698385;84;25737;-69
2022/02/24 10:13:10;;;;;;;16.05;5.30;;;;;;;15.87;40.52;100784.94;1698179;84;25768;-69
2022/02/24 10:15:40;;;;;;;16.15;5.40;;;;;;;16.07;43.67;100772.40;1698081;84;25756;-69
2022/02/24 10:18:16;;;;;;;18.15;6.87;;;;;;;16.64;44.76;100770.11;1697464;84;27334;-69
2022/02/24 10:20:56;;;;;;;18.32;6.00;;;;;;;17.36;44.66;100762.30;1698120;84;25702;-68
2022/02/24 10:23:36;;;;;;;15.00;6.60;;;;;;;17.99;42.54;100750.89;1698367;84;25780;-69
2022/02/24 10:26:10;;;;;;;13.55;5.65;;;;;;;18.48;41.51;100755.34;1698218;84;25728;-69
2022/02/24 10:28:47;;;;;;;19.67;6.22;;;;;;;18.79;39.35;100744.18;1698072;84;25835;-69
2022/02/24 10:31:24;;;;;;;13.25;5.60;;;;;;;18.71;40.13;100743.23;1698228;84;27423;-68
2022/02/24 10:34:07;;;;;;;15.98;6.20;;;;;;;18.84;39.25;100732.41;1697815;84;25844;-67
2022/02/24 10:36:37;;;;;;;19.82;6.75;;;;;;;19.04;39.79;100731.91;1698239;84;25716;-69
2022/02/24 10:39:21;;;;;;;18.80;6.37;;;;;;;19.00;37.25;100720.62;1698180;84;25779;-68
2022/02/24 10:41:49;;;;;;;17.05;6.40;;;;;;;18.28;37.71;100718.23;1698113;84;25842;-67
2022/02/24 10:44:26;;;;;;;16.37;5.33;;;;;;;17.07;38.69;100711.42;1698268;84;27313;-68
2022/02/24 10:47:10;;;;;;;16.93;6.70;;;;;;;16.16;38.72;100714.46;1698120;84;25641;-68
2022/02/24 10:49:40;;;;;;;16.97;5.53;;;;;;;15.34;39.99;100700.51;1698292;84;25312;-68
2022/02/24 10:52:20;;;;;;;19.85;6.50;;;;;;;14.49;41.00;100698.09;1698203;84;25753;-68
2022/02/24 10:55:03;;;;;;;;;;;;;;;13.97;42.13;100693.00;1701006;84;25718;-68
2022/02/24 10:57:30;;;;;;;17.17;5.83;;;;;;;13.86;43.48;100689.04;1698211;84;27329;-68
2022/02/24 10:59:59;;;;;;;12.78;5.35;;;;;;;13.65;43.17;100682.07;1698014;84;25694;-67
2022/02/24 11:02:28;;;;;;;16.87;5.67;;;;;;;13.25;41.96;100683.55;1698328;84;25757;-67
2022/02/24 11:04:56;;;;;;;18.57;5.83;;;;;;;12.94;44.19;100667.33;1698898;83;25818;-67
2022/02/24 11:07:24;;;;;;;15.72;5.97;;;;;;;13.05;45.43;100678.94;1669750;85;25712;-68
2022/02/24 11:09:51;;;;;;;17.80;6.17;;;;;;;13.06;44.25;100675.12;1698177;84;27336;-66
2022/02/24 11:12:23;;;;;;;17.17;6.17;;;;;;;12.95;44.06;100662.94;1698029;84;25683;-67
2022/02/24 11:14:50;;;;;;;20.37;6.60;;;;;;;12.99;46.11;100659.86;1698373;84;25684;-67
2022/02/24 11:17:17;;;;;;;15.35;5.78;;;;;;;13.05;44.81;100648.27;1669678;85;25717;-67
2022/02/24 11:19:44;;;;;;;15.35;6.17;;;;;;;12.79;44.03;100646.30;1698237;84;25712;-68
2022/02/24 11:22:10;;;;;;;14.80;5.25;;;;;;;13.01;46.33;100638.61;1669740;85;26618;-68